createdAt,value
2023-09-28T00:09:18.948Z,11.4
2023-09-28T00:24:29.180Z,14
2023-09-28T00:39:38.930Z,14.7
2023-09-28T00:54:48.469Z,12.9
2023-09-28T01:09:58.296Z,14.1
2023-09-28T01:25:08.201Z,13.1
2023-09-28T01:40:18.450Z,9.1
2023-09-28T01:55:29.216Z,10.8
2023-09-28T02:10:39.096Z,12.9
2023-09-28T02:25:48.997Z,9.9
2023-09-28T02:40:58.715Z,10.4
2023-09-28T02:56:08.946Z,11
2023-09-28T03:11:18.819Z,9.8
2023-09-28T03:26:28.911Z,11.2
2023-09-28T03:41:39.204Z,9.6
2023-09-28T03:56:48.495Z,8.8
2023-09-28T04:11:58.103Z,11.8
2023-09-28T04:27:07.976Z,10.4
2023-09-28T04:42:17.509Z,11.7
2023-09-28T04:57:28.274Z,12.5
2023-09-28T05:12:38.838Z,9.9
2023-09-28T05:27:48.820Z,12.4
2023-09-28T05:42:58.199Z,12.7
2023-09-28T05:58:07.763Z,13.8
2023-09-28T06:13:17.757Z,10.1
2023-09-28T06:28:28.522Z,14.7
2023-09-28T06:43:38.271Z,10.9
2023-09-28T06:58:47.983Z,8.6
2023-09-28T07:13:57.926Z,8.3
2023-09-28T07:29:08.500Z,6.1
2023-09-28T07:44:18.307Z,5.7
2023-09-28T07:59:30.274Z,8.5
2023-09-28T08:14:41.357Z,10.1
2023-09-28T08:29:51.664Z,7.8
2023-09-28T08:45:02.720Z,6.3
2023-09-28T09:00:13.263Z,7.9
2023-09-28T09:15:24.347Z,7.1
2023-09-28T09:30:34.488Z,7.5
2023-09-28T09:45:45.376Z,7.3
2023-09-28T10:00:55.506Z,5.6
2023-09-28T10:16:06.109Z,12.9
2023-09-28T10:31:18.718Z,8.8
2023-09-28T10:46:29.991Z,7.4
2023-09-28T11:01:40.233Z,10.6
2023-09-28T11:16:50.653Z,6.4
2023-09-28T11:32:01.221Z,10.5
2023-09-28T11:47:12.146Z,6.2
2023-09-28T12:02:24.087Z,6.2
2023-09-28T12:17:34.308Z,7.1
2023-09-28T12:32:46.512Z,4.8
2023-09-28T12:47:56.727Z,7.9
2023-09-28T13:03:07.362Z,6.5
2023-09-28T13:18:17.529Z,7.4
2023-09-28T13:33:30.648Z,8.5
2023-09-28T13:48:40.978Z,8.6
2023-09-28T14:03:52.244Z,9.9
2023-09-28T14:19:03.636Z,7.9
2023-09-28T14:36:17.058Z,10.6
2023-09-28T14:51:29.833Z,7.5
2023-09-28T15:06:39.528Z,10
2023-09-28T15:21:49.793Z,6.8
2023-09-28T15:36:59.407Z,9.6
2023-09-28T15:52:09.511Z,12.2
2023-09-28T16:07:18.893Z,12.4
2023-09-28T16:22:30.530Z,9.3
2023-09-28T16:37:40.582Z,9.9
2023-09-28T16:52:50.472Z,9.6
2023-09-28T17:07:59.933Z,12
2023-09-28T17:23:09.568Z,8.2
2023-09-28T17:38:19.713Z,8
2023-09-28T17:53:30.107Z,11.7
2023-09-28T18:08:39.884Z,8.8
2023-09-28T18:23:49.434Z,8.4
2023-09-28T18:39:16.155Z,7.9
2023-09-28T18:54:25.944Z,11.4
2023-09-28T19:09:35.841Z,9.8
2023-09-28T19:24:45.619Z,10
2023-09-28T19:39:55.772Z,9.5
2023-09-28T19:55:04.880Z,9.1
2023-09-28T20:10:14.916Z,9.1
2023-09-28T20:25:24.425Z,9.5
2023-09-28T20:40:34.386Z,12
2023-09-28T20:55:44.008Z,15.2
2023-09-28T21:10:53.254Z,12.1
2023-09-28T21:26:03.127Z,13.1
2023-09-28T21:41:12.897Z,12.4
2023-09-28T21:56:22.497Z,15.3
2023-09-28T22:11:33.285Z,13.3
2023-09-28T22:26:43.543Z,12.9
2023-09-28T22:41:54.161Z,16.7
2023-09-28T22:57:05.238Z,15.4
2023-09-28T23:12:15.086Z,16.4
2023-09-28T23:27:24.470Z,21.1
2023-09-28T23:42:34.404Z,17.6
2023-09-28T23:57:43.718Z,19.5
